sensor_id;sensor_type;location;lat;lon;timestamp;P1;durP1;ratioP1;P2;durP2;ratioP2
19059;SDS011;9663;48.996;8.334;2023-06-24T00:00:12;5.68;;;2.92;;
19059;SDS011;9663;48.996;8.334;2023-06-24T00:02:39;4.47;;;2.50;;
19059;SDS011;9663;48.996;8.334;2023-06-24T00:05:08;6.10;;;2.80;;
19059;SDS011;9663;48.996;8.334;2023-06-24T00:07:34;5.00;;;2.83;;
19059;SDS011;9663;48.996;8.334;2023-06-24T00:10:08;5.22;;;2.70;;
19059;SDS011;9663;48.996;8.334;2023-06-24T00:12:37;5.30;;;2.50;;
19059;SDS011;9663;48.996;8.334;2023-06-24T00:15:05;4.65;;;2.83;;
19059;SDS011;9663;48.996;8.334;2023-06-24T00:17:35;4.82;;;2.80;;
19059;SDS011;9663;48.996;8.334;2023-06-24T00:20:01;4.75;;;2.78;;
19059;SDS011;9663;48.996;8.334;2023-06-24T00:22:38;5.05;;;2.55;;
19059;SDS011;9663;48.996;8.334;2023-06-24T00:25:09;4.68;;;2.53;;
19059;SDS011;9663;48.996;8.334;2023-06-24T00:27:35;4.55;;;2.55;;
19059;SDS011;9663;48.996;8.334;2023-06-24T00:30:01;5.05;;;2.50;;
19059;SDS011;9663;48.996;8.334;2023-06-24T00:32:28;5.05;;;2.70;;
19059;SDS011;9663;48.996;8.334;2023-06-24T00:34:54;4.80;;;2.65;;
19059;SDS011;9663;48.996;8.334;2023-06-24T00:37:23;5.15;;;2.65;;
19059;SDS011;9663;48.996;8.334;2023-06-24T00:39:49;4.50;;;2.22;;
19059;SDS011;9663;48.996;8.334;2023-06-24T00:42:14;4.30;;;2.25;;
19059;SDS011;9663;48.996;8.334;2023-06-24T00:44:40;5.13;;;2.63;;
19059;SDS011;9663;48.996;8.334;2023-06-24T00:47:06;6.30;;;2.53;;
19059;SDS011;9663;48.996;8.334;2023-06-24T00:49:33;4.80;;;2.50;;
19059;SDS011;9663;48.996;8.334;2023-06-24T00:51:59;4.53;;;2.30;;
19059;SDS011;9663;48.996;8.334;2023-06-24T00:54:27;4.57;;;2.17;;
19059;SDS011;9663;48.996;8.334;2023-06-24T00:56:56;3.80;;;1.92;;
19059;SDS011;9663;48.996;8.334;2023-06-24T00:59:25;4.95;;;2.22;;
19059;SDS011;9663;48.996;8.334;2023-06-24T01:01:54;4.60;;;2.42;;
19059;SDS011;9663;48.996;8.334;2023-06-24T01:04:21;5.38;;;2.47;;
19059;SDS011;9663;48.996;8.334;2023-06-24T01:06:46;4.72;;;2.05;;
19059;SDS011;9663;48.996;8.334;2023-06-24T01:09:13;4.82;;;2.20;;
19059;SDS011;9663;48.996;8.334;2023-06-24T01:11:41;4.18;;;2.00;;
19059;SDS011;9663;48.996;8.334;2023-06-24T01:14:07;4.32;;;2.30;;
19059;SDS011;9663;48.996;8.334;2023-06-24T01:16:45;3.97;;;1.92;;
19059;SDS011;9663;48.996;8.334;2023-06-24T01:31:32;4.10;;;2.00;;
19059;SDS011;9663;48.996;8.334;2023-06-24T01:37:04;4.20;;;1.90;;
19059;SDS011;9663;48.996;8.334;2023-06-24T01:42:48;5.57;;;2.28;;
19059;SDS011;9663;48.996;8.334;2023-06-24T01:45:17;4.90;;;2.35;;
19059;SDS011;9663;48.996;8.334;2023-06-24T01:47:52;5.95;;;2.70;;
19059;SDS011;9663;48.996;8.334;2023-06-24T01:50:29;4.72;;;2.50;;
19059;SDS011;9663;48.996;8.334;2023-06-24T01:52:58;4.63;;;2.45;;
19059;SDS011;9663;48.996;8.334;2023-06-24T01:55:27;4.55;;;2.72;;
19059;SDS011;9663;48.996;8.334;2023-06-24T01:57:55;4.15;;;2.20;;
19059;SDS011;9663;48.996;8.334;2023-06-24T02:00:23;4.20;;;2.38;;
19059;SDS011;9663;48.996;8.334;2023-06-24T02:02:49;4.25;;;2.35;;
19059;SDS011;9663;48.996;8.334;2023-06-24T02:05:17;4.05;;;2.25;;
19059;SDS011;9663;48.996;8.334;2023-06-24T02:07:44;4.38;;;2.10;;
19059;SDS011;9663;48.996;8.334;2023-06-24T02:10:14;4.40;;;2.25;;
19059;SDS011;9663;48.996;8.334;2023-06-24T02:12:41;4.63;;;2.53;;
19059;SDS011;9663;48.996;8.334;2023-06-24T02:15:10;3.65;;;1.77;;
19059;SDS011;9663;48.996;8.334;2023-06-24T02:17:37;5.10;;;2.20;;
19059;SDS011;9663;48.996;8.334;2023-06-24T02:20:05;4.80;;;2.40;;
19059;SDS011;9663;48.996;8.334;2023-06-24T02:22:35;4.78;;;2.30;;
19059;SDS011;9663;48.996;8.334;2023-06-24T02:25:04;4.35;;;2.15;;
19059;SDS011;9663;48.996;8.334;2023-06-24T02:27:32;4.32;;;2.22;;
19059;SDS011;9663;48.996;8.334;2023-06-24T02:30:00;4.13;;;2.33;;
19059;SDS011;9663;48.996;8.334;2023-06-24T02:32:28;4.00;;;2.17;;
19059;SDS011;9663;48.996;8.334;2023-06-24T02:34:54;5.32;;;2.00;;
19059;SDS011;9663;48.996;8.334;2023-06-24T02:37:23;4.20;;;2.45;;
19059;SDS011;9663;48.996;8.334;2023-06-24T02:39:48;4.60;;;2.63;;
19059;SDS011;9663;48.996;8.334;2023-06-24T02:42:14;4.90;;;3.08;;
19059;SDS011;9663;48.996;8.334;2023-06-24T02:44:40;4.82;;;2.90;;
19059;SDS011;9663;48.996;8.334;2023-06-24T02:47:09;4.43;;;2.50;;
19059;SDS011;9663;48.996;8.334;2023-06-24T02:49:37;4.53;;;2.60;;
19059;SDS011;9663;48.996;8.334;2023-06-24T02:52:05;4.25;;;2.40;;
19059;SDS011;9663;48.996;8.334;2023-06-24T02:54:31;4.15;;;2.30;;
19059;SDS011;9663;48.996;8.334;2023-06-24T02:56:58;4.10;;;2.20;;
19059;SDS011;9663;48.996;8.334;2023-06-24T02:59:24;4.65;;;2.53;;
19059;SDS011;9663;48.996;8.334;2023-06-24T03:01:50;4.32;;;2.25;;
19059;SDS011;9663;48.996;8.334;2023-06-24T03:04:17;5.15;;;2.20;;
19059;SDS011;9663;48.996;8.334;2023-06-24T03:06:45;5.65;;;2.40;;
19059;SDS011;9663;48.996;8.334;2023-06-24T03:09:13;4.43;;;2.28;;
19059;SDS011;9663;48.996;8.334;2023-06-24T03:11:41;3.90;;;2.03;;
19059;SDS011;9663;48.996;8.334;2023-06-24T03:14:08;4.00;;;2.28;;
19059;SDS011;9663;48.996;8.334;2023-06-24T03:16:35;4.70;;;2.53;;
19059;SDS011;9663;48.996;8.334;2023-06-24T03:19:03;4.70;;;2.50;;
19059;SDS011;9663;48.996;8.334;2023-06-24T03:21:29;4.22;;;2.30;;
19059;SDS011;9663;48.996;8.334;2023-06-24T03:23:56;4.50;;;2.35;;
19059;SDS011;9663;48.996;8.334;2023-06-24T03:26:23;5.35;;;2.13;;
19059;SDS011;9663;48.996;8.334;2023-06-24T03:29:00;5.47;;;2.50;;
19059;SDS011;9663;48.996;8.334;2023-06-24T03:31:26;5.45;;;2.70;;
19059;SDS011;9663;48.996;8.334;2023-06-24T03:33:52;4.40;;;2.42;;
19059;SDS011;9663;48.996;8.334;2023-06-24T03:36:18;4.78;;;2.22;;
19059;SDS011;9663;48.996;8.334;2023-06-24T03:38:45;4.72;;;2.53;;
19059;SDS011;9663;48.996;8.334;2023-06-24T03:41:11;4.55;;;2.45;;
19059;SDS011;9663;48.996;8.334;2023-06-24T03:43:37;4.75;;;2.15;;
19059;SDS011;9663;48.996;8.334;2023-06-24T03:46:03;4.57;;;2.08;;
19059;SDS011;9663;48.996;8.334;2023-06-24T03:48:28;4.72;;;2.40;;
19059;SDS011;9663;48.996;8.334;2023-06-24T03:50:54;4.10;;;2.25;;
19059;SDS011;9663;48.996;8.334;2023-06-24T03:53:20;4.03;;;2.08;;
19059;SDS011;9663;48.996;8.334;2023-06-24T03:55:45;6.20;;;2.45;;
19059;SDS011;9663;48.996;8.334;2023-06-24T03:58:11;4.10;;;2.25;;
19059;SDS011;9663;48.996;8.334;2023-06-24T04:00:38;4.78;;;2.30;;
19059;SDS011;9663;48.996;8.334;2023-06-24T04:03:05;4.00;;;2.08;;
19059;SDS011;9663;48.996;8.334;2023-06-24T04:05:32;4.78;;;2.42;;
19059;SDS011;9663;48.996;8.334;2023-06-24T04:07:59;4.00;;;2.13;;
19059;SDS011;9663;48.996;8.334;2023-06-24T04:10:25;4.05;;;2.00;;
19059;SDS011;9663;48.996;8.334;2023-06-24T04:12:52;3.63;;;1.83;;
19059;SDS011;9663;48.996;8.334;2023-06-24T04:15:17;4.35;;;2.30;;
19059;SDS011;9663;48.996;8.334;2023-06-24T04:17:44;4.40;;;2.13;;
19059;SDS011;9663;48.996;8.334;2023-06-24T04:20:09;4.65;;;2.00;;
19059;SDS011;9663;48.996;8.334;2023-06-24T04:22:39;4.70;;;2.10;;
19059;SDS011;9663;48.996;8.334;2023-06-24T04:25:06;4.18;;;2.17;;
19059;SDS011;9663;48.996;8.334;2023-06-24T04:27:33;4.70;;;1.90;;
19059;SDS011;9663;48.996;8.334;2023-06-24T04:30:00;3.83;;;1.95;;
19059;SDS011;9663;48.996;8.334;2023-06-24T04:32:27;6.03;;;2.20;;
19059;SDS011;9663;48.996;8.334;2023-06-24T04:34:55;4.68;;;1.90;;
19059;SDS011;9663;48.996;8.334;2023-06-24T04:37:20;3.70;;;1.80;;
19059;SDS011;9663;48.996;8.334;2023-06-24T04:39:46;4.05;;;2.00;;
19059;SDS011;9663;48.996;8.334;2023-06-24T04:42:14;4.32;;;2.38;;
19059;SDS011;9663;48.996;8.334;2023-06-24T04:44:40;4.05;;;2.00;;
19059;SDS011;9663;48.996;8.334;2023-06-24T04:47:05;3.65;;;1.58;;
19059;SDS011;9663;48.996;8.334;2023-06-24T04:49:31;4.25;;;1.98;;
19059;SDS011;9663;48.996;8.334;2023-06-24T04:51:59;3.88;;;2.00;;
19059;SDS011;9663;48.996;8.334;2023-06-24T04:54:26;4.47;;;2.10;;
19059;SDS011;9663;48.996;8.334;2023-06-24T04:56:52;3.90;;;1.95;;
19059;SDS011;9663;48.996;8.334;2023-06-24T04:59:20;4.18;;;1.90;;
19059;SDS011;9663;48.996;8.334;2023-06-24T05:01:47;5.03;;;2.00;;
19059;SDS011;9663;48.996;8.334;2023-06-24T05:04:13;4.10;;;1.90;;
19059;SDS011;9663;48.996;8.334;2023-06-24T05:06:38;3.90;;;1.90;;
19059;SDS011;9663;48.996;8.334;2023-06-24T05:09:04;3.83;;;2.00;;
19059;SDS011;9663;48.996;8.334;2023-06-24T05:11:29;3.95;;;1.98;;
19059;SDS011;9663;48.996;8.334;2023-06-24T05:13:55;4.05;;;2.05;;
19059;SDS011;9663;48.996;8.334;2023-06-24T05:16:22;4.03;;;2.08;;
19059;SDS011;9663;48.996;8.334;2023-06-24T05:18:49;5.47;;;2.13;;
19059;SDS011;9663;48.996;8.334;2023-06-24T05:21:15;4.28;;;2.10;;
19059;SDS011;9663;48.996;8.334;2023-06-24T05:23:41;6.22;;;2.30;;
19059;SDS011;9663;48.996;8.334;2023-06-24T05:26:07;4.15;;;2.17;;
19059;SDS011;9663;48.996;8.334;2023-06-24T05:28:32;3.92;;;2.00;;
19059;SDS011;9663;48.996;8.334;2023-06-24T05:30:58;4.03;;;1.95;;
19059;SDS011;9663;48.996;8.334;2023-06-24T05:33:24;4.50;;;2.20;;
19059;SDS011;9663;48.996;8.334;2023-06-24T05:35:49;4.20;;;2.08;;
19059;SDS011;9663;48.996;8.334;2023-06-24T05:38:15;4.00;;;2.03;;
19059;SDS011;9663;48.996;8.334;2023-06-24T05:40:41;4.60;;;2.25;;
19059;SDS011;9663;48.996;8.334;2023-06-24T05:43:07;4.20;;;2.15;;
19059;SDS011;9663;48.996;8.334;2023-06-24T05:45:33;4.22;;;2.30;;
19059;SDS011;9663;48.996;8.334;2023-06-24T05:47:58;4.38;;;1.85;;
19059;SDS011;9663;48.996;8.334;2023-06-24T05:50:24;4.78;;;2.20;;
19059;SDS011;9663;48.996;8.334;2023-06-24T05:52:50;4.25;;;2.03;;
19059;SDS011;9663;48.996;8.334;2023-06-24T05:55:16;4.57;;;2.17;;
19059;SDS011;9663;48.996;8.334;2023-06-24T05:57:41;4.15;;;2.15;;
19059;SDS011;9663;48.996;8.334;2023-06-24T06:00:07;5.18;;;2.35;;
19059;SDS011;9663;48.996;8.334;2023-06-24T06:02:34;4.45;;;2.60;;
19059;SDS011;9663;48.996;8.334;2023-06-24T06:04:59;4.35;;;2.47;;
19059;SDS011;9663;48.996;8.334;2023-06-24T06:07:26;4.80;;;2.40;;
19059;SDS011;9663;48.996;8.334;2023-06-24T06:09:52;4.82;;;2.42;;
19059;SDS011;9663;48.996;8.334;2023-06-24T06:12:17;5.05;;;2.58;;
19059;SDS011;9663;48.996;8.334;2023-06-24T06:14:43;4.85;;;2.75;;
19059;SDS011;9663;48.996;8.334;2023-06-24T06:17:09;4.88;;;2.55;;
19059;SDS011;9663;48.996;8.334;2023-06-24T06:19:35;4.07;;;2.30;;
19059;SDS011;9663;48.996;8.334;2023-06-24T06:22:00;5.07;;;2.60;;
19059;SDS011;9663;48.996;8.334;2023-06-24T06:24:27;4.63;;;2.10;;
19059;SDS011;9663;48.996;8.334;2023-06-24T06:26:52;4.55;;;2.30;;
19059;SDS011;9663;48.996;8.334;2023-06-24T06:29:18;4.80;;;2.53;;
19059;SDS011;9663;48.996;8.334;2023-06-24T06:31:44;4.20;;;2.30;;
19059;SDS011;9663;48.996;8.334;2023-06-24T06:34:09;4.82;;;2.30;;
19059;SDS011;9663;48.996;8.334;2023-06-24T06:36:35;4.05;;;1.98;;
19059;SDS011;9663;48.996;8.334;2023-06-24T06:39:01;4.63;;;2.58;;
19059;SDS011;9663;48.996;8.334;2023-06-24T06:41:27;5.40;;;2.38;;
19059;SDS011;9663;48.996;8.334;2023-06-24T06:43:53;4.00;;;2.10;;
19059;SDS011;9663;48.996;8.334;2023-06-24T06:46:19;4.20;;;2.15;;
19059;SDS011;9663;48.996;8.334;2023-06-24T06:48:45;4.13;;;2.25;;
19059;SDS011;9663;48.996;8.334;2023-06-24T06:51:11;4.45;;;2.42;;
19059;SDS011;9663;48.996;8.334;2023-06-24T06:53:38;4.30;;;2.28;;
19059;SDS011;9663;48.996;8.334;2023-06-24T06:56:04;4.78;;;2.45;;
19059;SDS011;9663;48.996;8.334;2023-06-24T06:58:29;4.68;;;2.25;;
19059;SDS011;9663;48.996;8.334;2023-06-24T07:00:55;5.57;;;2.45;;
19059;SDS011;9663;48.996;8.334;2023-06-24T07:03:26;4.60;;;2.53;;
19059;SDS011;9663;48.996;8.334;2023-06-24T07:05:53;5.22;;;2.20;;
19059;SDS011;9663;48.996;8.334;2023-06-24T07:08:19;4.50;;;2.50;;
19059;SDS011;9663;48.996;8.334;2023-06-24T07:10:44;4.28;;;2.20;;
19059;SDS011;9663;48.996;8.334;2023-06-24T07:13:10;3.63;;;1.80;;
19059;SDS011;9663;48.996;8.334;2023-06-24T07:15:36;4.80;;;2.05;;
19059;SDS011;9663;48.996;8.334;2023-06-24T07:18:01;4.57;;;2.53;;
19059;SDS011;9663;48.996;8.334;2023-06-24T07:20:27;4.80;;;2.30;;
19059;SDS011;9663;48.996;8.334;2023-06-24T07:22:53;5.53;;;2.10;;
19059;SDS011;9663;48.996;8.334;2023-06-24T07:25:18;4.88;;;2.38;;
19059;SDS011;9663;48.996;8.334;2023-06-24T07:27:44;4.55;;;2.40;;
19059;SDS011;9663;48.996;8.334;2023-06-24T07:30:10;3.90;;;2.05;;
19059;SDS011;9663;48.996;8.334;2023-06-24T07:32:36;3.88;;;2.00;;
19059;SDS011;9663;48.996;8.334;2023-06-24T07:35:01;4.85;;;1.95;;
19059;SDS011;9663;48.996;8.334;2023-06-24T07:37:27;5.10;;;2.45;;
19059;SDS011;9663;48.996;8.334;2023-06-24T07:39:53;5.25;;;2.10;;
19059;SDS011;9663;48.996;8.334;2023-06-24T07:42:19;4.30;;;2.10;;
19059;SDS011;9663;48.996;8.334;2023-06-24T07:44:48;3.95;;;1.85;;
19059;SDS011;9663;48.996;8.334;2023-06-24T07:47:14;4.03;;;1.83;;
19059;SDS011;9663;48.996;8.334;2023-06-24T07:49:42;4.70;;;2.20;;
19059;SDS011;9663;48.996;8.334;2023-06-24T07:52:08;4.30;;;2.08;;
19059;SDS011;9663;48.996;8.334;2023-06-24T07:54:33;4.13;;;2.10;;
19059;SDS011;9663;48.996;8.334;2023-06-24T07:57:00;3.70;;;1.88;;
19059;SDS011;9663;48.996;8.334;2023-06-24T07:59:26;4.03;;;1.92;;
19059;SDS011;9663;48.996;8.334;2023-06-24T08:01:52;4.28;;;2.13;;
19059;SDS011;9663;48.996;8.334;2023-06-24T08:04:18;4.20;;;2.17;;
19059;SDS011;9663;48.996;8.334;2023-06-24T08:06:43;4.25;;;2.25;;
19059;SDS011;9663;48.996;8.334;2023-06-24T08:09:09;4.28;;;2.08;;
19059;SDS011;9663;48.996;8.334;2023-06-24T08:11:35;3.90;;;1.98;;
19059;SDS011;9663;48.996;8.334;2023-06-24T08:14:01;6.05;;;2.83;;
19059;SDS011;9663;48.996;8.334;2023-06-24T08:16:27;3.88;;;1.85;;
19059;SDS011;9663;48.996;8.334;2023-06-24T08:18:53;3.80;;;1.92;;
19059;SDS011;9663;48.996;8.334;2023-06-24T08:21:19;3.85;;;2.00;;
19059;SDS011;9663;48.996;8.334;2023-06-24T08:23:45;3.80;;;2.00;;
19059;SDS011;9663;48.996;8.334;2023-06-24T08:26:11;4.50;;;2.13;;
19059;SDS011;9663;48.996;8.334;2023-06-24T08:31:24;4.20;;;1.95;;
19059;SDS011;9663;48.996;8.334;2023-06-24T08:34:08;3.53;;;1.85;;
19059;SDS011;9663;48.996;8.334;2023-06-24T08:36:43;4.15;;;2.10;;
19059;SDS011;9663;48.996;8.334;2023-06-24T08:39:09;4.40;;;2.20;;
19059;SDS011;9663;48.996;8.334;2023-06-24T08:41:35;3.30;;;1.50;;
19059;SDS011;9663;48.996;8.334;2023-06-24T08:44:01;3.30;;;1.63;;
19059;SDS011;9663;48.996;8.334;2023-06-24T08:46:27;4.00;;;1.92;;
19059;SDS011;9663;48.996;8.334;2023-06-24T08:49:28;3.80;;;1.92;;
19059;SDS011;9663;48.996;8.334;2023-06-24T08:51:47;3.80;;;1.80;;
19059;SDS011;9663;48.996;8.334;2023-06-24T08:54:25;4.07;;;1.80;;
19059;SDS011;9663;48.996;8.334;2023-06-24T08:56:52;3.67;;;1.83;;
19059;SDS011;9663;48.996;8.334;2023-06-24T08:59:18;3.90;;;1.92;;
19059;SDS011;9663;48.996;8.334;2023-06-24T09:01:48;3.10;;;1.50;;
19059;SDS011;9663;48.996;8.334;2023-06-24T09:04:15;3.67;;;1.63;;
19059;SDS011;9663;48.996;8.334;2023-06-24T09:06:41;3.85;;;1.90;;
19059;SDS011;9663;48.996;8.334;2023-06-24T09:09:16;3.60;;;1.73;;
19059;SDS011;9663;48.996;8.334;2023-06-24T09:11:54;3.70;;;1.70;;
19059;SDS011;9663;48.996;8.334;2023-06-24T09:14:25;3.25;;;1.35;;
19059;SDS011;9663;48.996;8.334;2023-06-24T09:16:56;3.78;;;1.70;;
19059;SDS011;9663;48.996;8.334;2023-06-24T09:19:26;3.20;;;1.48;;
19059;SDS011;9663;48.996;8.334;2023-06-24T09:21:54;3.30;;;1.50;;
19059;SDS011;9663;48.996;8.334;2023-06-24T09:24:26;3.70;;;1.70;;
19059;SDS011;9663;48.996;8.334;2023-06-24T09:26:55;3.58;;;1.80;;
19059;SDS011;9663;48.996;8.334;2023-06-24T09:29:25;3.70;;;1.80;;
19059;SDS011;9663;48.996;8.334;2023-06-24T09:31:57;3.80;;;1.80;;
19059;SDS011;9663;48.996;8.334;2023-06-24T09:34:25;4.00;;;1.90;;
19059;SDS011;9663;48.996;8.334;2023-06-24T09:36:54;3.80;;;1.85;;
19059;SDS011;9663;48.996;8.334;2023-06-24T09:39:22;4.22;;;1.75;;
19059;SDS011;9663;48.996;8.334;2023-06-24T09:41:59;3.20;;;1.42;;
19059;SDS011;9663;48.996;8.334;2023-06-24T09:44:27;3.25;;;1.58;;
19059;SDS011;9663;48.996;8.334;2023-06-24T09:46:54;3.45;;;1.75;;
19059;SDS011;9663;48.996;8.334;2023-06-24T09:49:21;3.83;;;1.80;;
19059;SDS011;9663;48.996;8.334;2023-06-24T09:51:48;3.80;;;1.58;;
19059;SDS011;9663;48.996;8.334;2023-06-24T09:54:22;3.35;;;1.70;;
19059;SDS011;9663;48.996;8.334;2023-06-24T09:56:53;3.55;;;1.60;;
19059;SDS011;9663;48.996;8.334;2023-06-24T09:59:20;3.65;;;1.75;;
19059;SDS011;9663;48.996;8.334;2023-06-24T10:01:49;4.40;;;2.20;;
19059;SDS011;9663;48.996;8.334;2023-06-24T10:04:19;5.65;;;2.00;;
19059;SDS011;9663;48.996;8.334;2023-06-24T10:06:47;3.80;;;1.70;;
19059;SDS011;9663;48.996;8.334;2023-06-24T10:09:13;3.25;;;1.55;;
19059;SDS011;9663;48.996;8.334;2023-06-24T10:11:45;3.20;;;1.70;;
19059;SDS011;9663;48.996;8.334;2023-06-24T10:14:12;3.60;;;1.75;;
19059;SDS011;9663;48.996;8.334;2023-06-24T10:16:40;4.65;;;1.63;;
19059;SDS011;9663;48.996;8.334;2023-06-24T10:19:07;3.38;;;1.65;;
19059;SDS011;9663;48.996;8.334;2023-06-24T10:21:52;3.50;;;1.42;;
19059;SDS011;9663;48.996;8.334;2023-06-24T10:24:36;3.58;;;1.73;;
19059;SDS011;9663;48.996;8.334;2023-06-24T10:27:16;3.05;;;1.50;;
19059;SDS011;9663;48.996;8.334;2023-06-24T10:29:47;3.45;;;1.55;;
19059;SDS011;9663;48.996;8.334;2023-06-24T10:32:18;3.28;;;1.50;;
19059;SDS011;9663;48.996;8.334;2023-06-24T10:34:47;3.88;;;1.70;;
19059;SDS011;9663;48.996;8.334;2023-06-24T10:37:20;3.58;;;1.42;;
19059;SDS011;9663;48.996;8.334;2023-06-24T10:42:38;3.70;;;1.60;;
19059;SDS011;9663;48.996;8.334;2023-06-24T10:47:34;2.92;;;1.30;;
19059;SDS011;9663;48.996;8.334;2023-06-24T10:50:28;2.75;;;1.30;;
19059;SDS011;9663;48.996;8.334;2023-06-24T10:52:54;3.08;;;1.23;;
19059;SDS011;9663;48.996;8.334;2023-06-24T10:55:26;4.43;;;2.30;;
19059;SDS011;9663;48.996;8.334;2023-06-24T10:57:52;4.05;;;1.90;;
19059;SDS011;9663;48.996;8.334;2023-06-24T11:00:18;4.47;;;1.80;;
19059;SDS011;9663;48.996;8.334;2023-06-24T11:02:46;3.78;;;1.40;;
19059;SDS011;9663;48.996;8.334;2023-06-24T11:05:12;3.65;;;1.30;;
19059;SDS011;9663;48.996;8.334;2023-06-24T11:07:37;3.30;;;1.50;;
19059;SDS011;9663;48.996;8.334;2023-06-24T11:10:07;3.30;;;1.55;;
19059;SDS011;9663;48.996;8.334;2023-06-24T11:12:39;3.85;;;1.55;;
19059;SDS011;9663;48.996;8.334;2023-06-24T11:15:07;3.28;;;1.48;;
19059;SDS011;9663;48.996;8.334;2023-06-24T11:17:36;3.47;;;1.50;;
19059;SDS011;9663;48.996;8.334;2023-06-24T11:20:06;3.22;;;1.55;;
19059;SDS011;9663;48.996;8.334;2023-06-24T11:22:34;3.08;;;1.30;;
19059;SDS011;9663;48.996;8.334;2023-06-24T11:25:00;3.30;;;1.42;;
19059;SDS011;9663;48.996;8.334;2023-06-24T11:29:58;3.40;;;1.55;;
19059;SDS011;9663;48.996;8.334;2023-06-24T11:32:37;3.88;;;1.63;;
19059;SDS011;9663;48.996;8.334;2023-06-24T11:35:08;3.08;;;1.40;;
19059;SDS011;9663;48.996;8.334;2023-06-24T11:37:43;3.05;;;1.42;;
19059;SDS011;9663;48.996;8.334;2023-06-24T11:40:11;3.25;;;1.42;;
19059;SDS011;9663;48.996;8.334;2023-06-24T11:42:41;3.13;;;1.38;;
19059;SDS011;9663;48.996;8.334;2023-06-24T11:48:21;3.10;;;1.40;;
19059;SDS011;9663;48.996;8.334;2023-06-24T11:50:52;3.00;;;1.30;;
19059;SDS011;9663;48.996;8.334;2023-06-24T11:53:28;2.63;;;1.27;;
19059;SDS011;9663;48.996;8.334;2023-06-24T11:55:56;2.70;;;1.30;;
19059;SDS011;9663;48.996;8.334;2023-06-24T11:58:22;3.35;;;1.40;;
19059;SDS011;9663;48.996;8.334;2023-06-24T12:00:48;2.70;;;1.30;;
19059;SDS011;9663;48.996;8.334;2023-06-24T12:03:15;3.70;;;1.70;;
19059;SDS011;9663;48.996;8.334;2023-06-24T12:05:41;3.80;;;1.75;;
19059;SDS011;9663;48.996;8.334;2023-06-24T12:08:10;3.28;;;1.70;;
19059;SDS011;9663;48.996;8.334;2023-06-24T12:10:38;3.40;;;1.40;;
19059;SDS011;9663;48.996;8.334;2023-06-24T12:13:04;3.03;;;1.30;;
19059;SDS011;9663;48.996;8.334;2023-06-24T12:15:31;3.15;;;1.50;;
19059;SDS011;9663;48.996;8.334;2023-06-24T12:17:57;3.17;;;1.67;;
19059;SDS011;9663;48.996;8.334;2023-06-24T12:20:26;2.72;;;1.35;;
19059;SDS011;9663;48.996;8.334;2023-06-24T12:22:52;3.35;;;1.75;;
19059;SDS011;9663;48.996;8.334;2023-06-24T12:25:17;3.67;;;1.70;;
19059;SDS011;9663;48.996;8.334;2023-06-24T12:27:44;3.22;;;1.50;;
19059;SDS011;9663;48.996;8.334;2023-06-24T12:30:10;3.35;;;1.63;;
19059;SDS011;9663;48.996;8.334;2023-06-24T12:32:37;3.03;;;1.38;;
19059;SDS011;9663;48.996;8.334;2023-06-24T12:35:03;3.33;;;1.52;;
19059;SDS011;9663;48.996;8.334;2023-06-24T12:37:31;4.00;;;1.60;;
19059;SDS011;9663;48.996;8.334;2023-06-24T12:40:01;3.72;;;1.33;;
19059;SDS011;9663;48.996;8.334;2023-06-24T12:42:28;3.10;;;1.40;;
19059;SDS011;9663;48.996;8.334;2023-06-24T12:44:54;3.50;;;1.67;;
19059;SDS011;9663;48.996;8.334;2023-06-24T12:47:20;3.28;;;1.45;;
19059;SDS011;9663;48.996;8.334;2023-06-24T12:49:46;3.70;;;1.67;;
19059;SDS011;9663;48.996;8.334;2023-06-24T12:52:13;3.65;;;1.60;;
19059;SDS011;9663;48.996;8.334;2023-06-24T12:54:39;3.50;;;1.60;;
19059;SDS011;9663;48.996;8.334;2023-06-24T12:57:06;2.72;;;1.35;;
19059;SDS011;9663;48.996;8.334;2023-06-24T12:59:31;3.33;;;1.50;;
19059;SDS011;9663;48.996;8.334;2023-06-24T13:01:57;3.28;;;1.60;;
19059;SDS011;9663;48.996;8.334;2023-06-24T13:04:23;2.80;;;1.30;;
19059;SDS011;9663;48.996;8.334;2023-06-24T13:06:49;3.38;;;1.60;;
19059;SDS011;9663;48.996;8.334;2023-06-24T13:09:18;3.30;;;1.70;;
19059;SDS011;9663;48.996;8.334;2023-06-24T13:11:44;3.47;;;1.83;;
19059;SDS011;9663;48.996;8.334;2023-06-24T13:14:12;3.00;;;1.30;;
19059;SDS011;9663;48.996;8.334;2023-06-24T13:16:38;3.40;;;1.48;;
19059;SDS011;9663;48.996;8.334;2023-06-24T13:19:04;4.93;;;1.60;;
19059;SDS011;9663;48.996;8.334;2023-06-24T13:21:30;3.45;;;1.67;;
19059;SDS011;9663;48.996;8.334;2023-06-24T13:23:55;3.28;;;1.60;;
19059;SDS011;9663;48.996;8.334;2023-06-24T13:26:21;3.35;;;1.67;;
19059;SDS011;9663;48.996;8.334;2023-06-24T13:28:47;3.20;;;1.58;;
19059;SDS011;9663;48.996;8.334;2023-06-24T13:31:14;3.22;;;1.60;;
19059;SDS011;9663;48.996;8.334;2023-06-24T13:33:40;3.42;;;1.50;;
19059;SDS011;9663;48.996;8.334;2023-06-24T13:36:06;3.70;;;1.50;;
19059;SDS011;9663;48.996;8.334;2023-06-24T13:38:50;2.90;;;1.40;;
19059;SDS011;9663;48.996;8.334;2023-06-24T13:41:16;3.40;;;1.63;;
19059;SDS011;9663;48.996;8.334;2023-06-24T13:43:41;2.78;;;1.30;;
19059;SDS011;9663;48.996;8.334;2023-06-24T13:46:07;2.90;;;1.38;;
19059;SDS011;9663;48.996;8.334;2023-06-24T13:48:33;3.10;;;1.50;;
19059;SDS011;9663;48.996;8.334;2023-06-24T13:50:58;3.28;;;1.80;;
19059;SDS011;9663;48.996;8.334;2023-06-24T13:53:24;2.95;;;1.60;;
19059;SDS011;9663;48.996;8.334;2023-06-24T13:55:49;2.78;;;1.23;;
19059;SDS011;9663;48.996;8.334;2023-06-24T13:58:15;3.17;;;1.55;;
19059;SDS011;9663;48.996;8.334;2023-06-24T14:00:41;3.47;;;1.60;;
19059;SDS011;9663;48.996;8.334;2023-06-24T14:03:07;3.78;;;2.08;;
19059;SDS011;9663;48.996;8.334;2023-06-24T14:05:32;2.92;;;1.50;;
19059;SDS011;9663;48.996;8.334;2023-06-24T14:07:58;4.50;;;1.45;;
19059;SDS011;9663;48.996;8.334;2023-06-24T14:10:24;3.28;;;1.60;;
19059;SDS011;9663;48.996;8.334;2023-06-24T14:12:50;3.17;;;1.55;;
19059;SDS011;9663;48.996;8.334;2023-06-24T14:15:15;3.35;;;1.70;;
19059;SDS011;9663;48.996;8.334;2023-06-24T14:17:41;3.30;;;1.67;;
19059;SDS011;9663;48.996;8.334;2023-06-24T14:20:07;3.25;;;1.40;;
19059;SDS011;9663;48.996;8.334;2023-06-24T14:22:33;3.40;;;1.55;;
19059;SDS011;9663;48.996;8.334;2023-06-24T14:24:59;3.20;;;1.50;;
19059;SDS011;9663;48.996;8.334;2023-06-24T14:27:24;3.30;;;1.73;;
19059;SDS011;9663;48.996;8.334;2023-06-24T14:29:50;3.20;;;1.42;;
19059;SDS011;9663;48.996;8.334;2023-06-24T14:32:16;3.70;;;1.50;;
19059;SDS011;9663;48.996;8.334;2023-06-24T14:34:41;3.72;;;1.73;;
19059;SDS011;9663;48.996;8.334;2023-06-24T14:37:08;3.35;;;1.40;;
19059;SDS011;9663;48.996;8.334;2023-06-24T14:39:33;3.20;;;1.40;;
19059;SDS011;9663;48.996;8.334;2023-06-24T14:41:59;3.53;;;1.70;;
19059;SDS011;9663;48.996;8.334;2023-06-24T14:44:24;3.63;;;1.65;;
19059;SDS011;9663;48.996;8.334;2023-06-24T14:46:50;2.90;;;1.20;;
19059;SDS011;9663;48.996;8.334;2023-06-24T14:49:16;3.80;;;1.55;;
19059;SDS011;9663;48.996;8.334;2023-06-24T14:51:42;3.20;;;1.63;;
19059;SDS011;9663;48.996;8.334;2023-06-24T14:54:08;2.80;;;1.30;;
19059;SDS011;9663;48.996;8.334;2023-06-24T14:56:33;3.13;;;1.65;;
19059;SDS011;9663;48.996;8.334;2023-06-24T14:58:59;4.32;;;1.60;;
19059;SDS011;9663;48.996;8.334;2023-06-24T15:01:24;3.13;;;1.58;;
19059;SDS011;9663;48.996;8.334;2023-06-24T15:03:50;3.30;;;1.63;;
19059;SDS011;9663;48.996;8.334;2023-06-24T15:06:16;3.55;;;1.75;;
19059;SDS011;9663;48.996;8.334;2023-06-24T15:08:41;3.33;;;1.60;;
19059;SDS011;9663;48.996;8.334;2023-06-24T15:11:07;3.33;;;1.85;;
19059;SDS011;9663;48.996;8.334;2023-06-24T15:13:32;3.15;;;1.75;;
19059;SDS011;9663;48.996;8.334;2023-06-24T15:15:58;4.63;;;1.80;;
19059;SDS011;9663;48.996;8.334;2023-06-24T15:18:24;2.65;;;1.40;;
19059;SDS011;9663;48.996;8.334;2023-06-24T15:20:50;3.20;;;1.60;;
19059;SDS011;9663;48.996;8.334;2023-06-24T15:23:16;3.13;;;1.63;;
19059;SDS011;9663;48.996;8.334;2023-06-24T15:25:41;3.13;;;1.52;;
19059;SDS011;9663;48.996;8.334;2023-06-24T15:28:07;3.00;;;1.40;;
19059;SDS011;9663;48.996;8.334;2023-06-24T15:30:33;2.95;;;1.52;;
19059;SDS011;9663;48.996;8.334;2023-06-24T15:32:58;3.15;;;1.70;;